Time;durP1;ratioP1;P1;durP2;ratioP2;P2;SDS_P1;SDS_P2;PMS_P1;PMS_P2;Temp;Humidity;BMP_temperature;BMP_pressure;BME280_temperature;BME280_humidity;BME280_pressure;Samples;Min_cycle;Max_cycle;Signal;HPM_P1;HPM_P2
2023/03/25 00:01:03;;;;;;;52.15;43.78;;;28.50;76.30;;;;;;1778423;79;21230;-79
2023/03/25 00:03:34;;;;;;;57.50;44.88;;;28.40;76.10;;;;;;1783128;79;21693;-79
2023/03/25 00:06:07;;;;;;;53.83;43.90;;;28.50;76.20;;;;;;1797511;79;21167;-80
2023/03/25 00:08:38;;;;;;;52.43;44.50;;;28.40;76.20;;;;;;1787842;79;21518;-79
2023/03/25 00:11:09;;;;;;;58.33;44.53;;;28.40;76.20;;;;;;1766244;80;22115;-80
2023/03/25 00:13:41;;;;;;;54.10;43.45;;;28.50;76.40;;;;;;1778524;80;21274;-80
2023/03/25 00:16:12;;;;;;;55.45;43.45;;;28.50;75.90;;;;;;1778431;79;21243;-80
2023/03/25 00:18:43;;;;;;;60.35;43.75;;;28.50;75.70;;;;;;1773371;80;21153;-79
2023/03/25 00:21:14;;;;;;;56.08;44.15;;;28.50;75.80;;;;;;1777258;79;21572;-80
2023/03/25 00:23:45;;;;;;;53.75;43.90;;;28.60;75.30;;;;;;1780276;80;21179;-80
2023/03/25 00:26:17;;;;;;;50.70;43.83;;;28.60;75.20;;;;;;1780001;79;21522;-80
2023/03/25 00:28:48;;;;;;;51.58;42.80;;;28.60;74.70;;;;;;1775761;79;21206;-73
2023/03/25 00:31:19;;;;;;;52.33;43.68;;;28.60;74.50;;;;;;1778936;79;21364;-74
2023/03/25 00:33:50;;;;;;;57.15;42.95;;;28.70;74.00;;;;;;1772190;79;21138;-72
2023/03/25 00:36:21;;;;;;;52.45;41.80;;;28.70;74.00;;;;;;1780368;80;21167;-74
2023/03/25 00:38:52;;;;;;;53.02;41.45;;;28.70;73.60;;;;;;1776153;80;21197;-81
2023/03/25 00:41:26;;;;;;;52.20;40.48;;;28.80;73.70;;;;;;1795055;79;21398;-81
2023/03/25 00:43:58;;;;;;;51.73;39.25;;;28.80;72.50;;;;;;1772141;79;21148;-80
2023/03/25 00:46:31;;;;;;;55.33;40.58;;;28.90;71.80;;;;;;1791090;78;21128;-82
2023/03/25 00:49:02;;;;;;;55.30;39.15;;;29.00;71.70;;;;;;1832901;77;21558;-81
2023/03/25 00:51:34;;;;;;;45.98;36.33;;;29.10;71.30;;;;;;1804029;79;21423;-81
2023/03/25 00:54:06;;;;;;;43.65;36.73;;;29.20;70.20;;;;;;1839121;77;21153;-80
2023/03/25 00:56:37;;;;;;;47.98;35.35;;;29.30;69.50;;;;;;1843546;77;21909;-80
2023/03/25 00:59:11;;;;;;;45.50;34.13;;;29.30;69.10;;;;;;1805537;79;21207;-80
2023/03/25 01:01:42;;;;;;;39.33;33.35;;;29.40;67.20;;;;;;1844705;77;21189;-80
2023/03/25 01:04:15;;;;;;;39.18;31.65;;;29.40;66.60;;;;;;1810680;79;21670;-80
2023/03/25 01:06:50;;;;;;;42.33;33.75;;;29.50;67.00;;;;;;1804191;79;21196;-81
2023/03/25 01:09:19;;;;;;;44.03;34.15;;;29.60;67.40;;;;;;1827037;78;21071;-82
2023/03/25 01:11:50;;;;;;;44.00;34.67;;;29.60;66.50;;;;;;1842190;76;21197;-79
2023/03/25 01:14:23;;;;;;;42.85;34.70;;;29.70;66.20;;;;;;1812973;78;21223;-80
2023/03/25 01:16:54;;;;;;;43.60;34.88;;;29.70;66.70;;;;;;1819928;78;22071;-80
2023/03/25 01:19:25;;;;;;;49.88;36.35;;;29.70;66.50;;;;;;1813784;78;21145;-80
2023/03/25 01:21:56;;;;;;;46.75;35.60;;;29.80;66.90;;;;;;1839552;77;22096;-80
2023/03/25 01:24:27;;;;;;;44.38;34.38;;;29.90;66.40;;;;;;1856950;77;21134;-82
2023/03/25 01:27:03;;;;;;;47.25;35.23;;;29.90;67.50;;;;;;1791844;78;22142;-80
2023/03/25 01:29:32;;;;;;;40.23;33.95;;;30.00;66.60;;;;;;1808677;78;21197;-80
2023/03/25 01:32:03;;;;;;;42.62;33.85;;;30.10;66.00;;;;;;1828014;76;21191;-81
2023/03/25 01:34:37;;;;;;;44.55;33.95;;;30.10;65.60;;;;;;1811355;78;21160;-80
2023/03/25 01:37:06;;;;;;;40.75;32.38;;;30.20;65.00;;;;;;1809340;78;21149;-80
2023/03/25 01:39:38;;;;;;;45.45;32.95;;;30.30;64.60;;;;;;1811287;78;21506;-80
2023/03/25 01:42:10;;;;;;;42.98;32.75;;;30.30;64.30;;;;;;1845213;76;21218;-82
2023/03/25 01:44:46;;;;;;;37.88;32.23;;;30.40;63.50;;;;;;1853993;76;21155;-80
2023/03/25 01:47:18;;;;;;;40.40;33.38;;;30.50;63.80;;;;;;1835605;76;21167;-80
2023/03/25 01:49:50;;;;;;;41.92;33.00;;;30.50;63.70;;;;;;1848089;76;21897;-80
2023/03/25 01:52:23;;;;;;;45.43;33.92;;;30.60;64.00;;;;;;1795051;79;21177;-81
2023/03/25 01:54:55;;;;;;;49.30;34.48;;;30.70;64.10;;;;;;1793856;78;21941;-80
2023/03/25 01:57:26;;;;;;;43.25;34.53;;;30.70;64.20;;;;;;1772152;80;21474;-79
2023/03/25 01:59:57;;;;;;;38.30;32.67;;;30.90;63.90;;;;;;1775449;80;21189;-81
2023/03/25 02:02:33;;;;;;;41.15;32.50;;;30.90;62.80;;;;;;1806952;79;21597;-80
2023/03/25 02:05:10;;;;;;;36.05;32.15;;;31.00;62.60;;;;;;1788538;79;21200;-81
2023/03/25 02:07:45;;;;;;;43.30;33.78;;;31.10;62.90;;;;;;1784174;79;21280;-81
2023/03/25 02:10:15;;;;;;;37.53;32.03;;;31.20;62.40;;;;;;1787234;79;21596;-81
2023/03/25 02:12:46;;;;;;;38.48;31.75;;;31.30;62.40;;;;;;1789262;79;21462;-81
2023/03/25 02:15:19;;;;;;;36.77;30.80;;;31.30;62.40;;;;;;1770930;80;21199;-81
2023/03/25 02:17:55;;;;;;;37.38;31.97;;;31.50;62.30;;;;;;1790005;79;21599;-81
2023/03/25 02:20:45;;;;;;;39.25;29.95;;;31.60;62.00;;;;;;1781537;79;21235;-80
2023/03/25 02:23:47;;;;;;;38.28;31.42;;;31.70;61.10;;;;;;1791780;78;21182;-79
2023/03/25 02:26:35;;;;;;;40.65;30.25;;;31.80;59.80;;;;;;1750677;80;21172;-81
2023/03/25 02:29:29;;;;;;;32.23;28.77;;;31.90;60.50;;;;;;1798034;79;21281;-81
2023/03/25 02:32:39;;;;;;;35.05;30.35;;;32.00;60.10;;;;;;1793749;78;21206;-80
2023/03/25 02:35:30;;;;;;;34.65;29.87;;;32.10;60.30;;;;;;1706131;82;21400;-80
2023/03/25 02:38:10;;;;;;;39.03;30.40;;;32.30;59.40;;;;;;1703554;83;21231;-81
2023/03/25 02:40:50;;;;;;;42.00;30.35;;;32.40;59.70;;;;;;1783268;78;21194;-79
2023/03/25 02:43:26;;;;;;;61.05;33.10;;;32.50;59.40;;;;;;1812161;78;21115;-81
2023/03/25 02:46:18;;;;;;;38.98;30.25;;;32.60;59.00;;;;;;1759732;80;21170;-81
2023/03/25 02:49:00;;;;;;;44.70;31.75;;;32.70;58.10;;;;;;1757452;81;21364;-80
2023/03/25 02:51:34;;;;;;;38.67;29.80;;;32.90;58.40;;;;;;1757743;80;21166;-81
2023/03/25 02:54:08;;;;;;;37.70;30.77;;;33.00;58.30;;;;;;1785962;79;21283;-82
2023/03/25 02:56:42;;;;;;;33.55;29.23;;;33.10;58.30;;;;;;1755033;80;21183;-81
2023/03/25 02:59:15;;;;;;;38.58;30.00;;;33.20;58.00;;;;;;1786050;79;21184;-81
2023/03/25 03:01:49;;;;;;;37.95;28.32;;;33.30;57.60;;;;;;1784585;80;21236;-81
2023/03/25 03:04:19;;;;;;;31.82;27.45;;;33.50;57.30;;;;;;1784009;80;21670;-82
2023/03/25 03:06:50;;;;;;;31.73;27.37;;;33.60;56.20;;;;;;1782352;79;21263;-82
2023/03/25 03:09:27;;;;;;;34.25;26.60;;;33.70;55.70;;;;;;1748591;81;21689;-81
2023/03/25 03:11:58;;;;;;;;;;;33.80;54.40;;;;;;1743732;81;21186;-82
2023/03/25 03:14:31;;;;;;;34.60;25.82;;;34.00;55.50;;;;;;1743104;80;20257;-82
2023/03/25 03:17:20;;;;;;;37.55;27.95;;;34.00;55.70;;;;;;1790472;79;21137;-81
2023/03/25 03:20:00;;;;;;;29.50;26.37;;;34.10;55.40;;;;;;1748901;81;21217;-80
2023/03/25 03:22:33;;;;;;;34.10;26.77;;;34.20;54.40;;;;;;1771273;80;21134;-81
2023/03/25 03:25:19;;;;;;;29.55;25.20;;;34.20;54.20;;;;;;1782503;80;21100;-81
2023/03/25 03:28:09;;;;;;;29.50;25.70;;;34.30;52.60;;;;;;1744505;81;21189;-81
2023/03/25 03:30:42;;;;;;;34.20;26.15;;;34.40;53.00;;;;;;1785269;80;21172;-81
2023/03/25 03:36:41;;;;;;;28.77;25.57;;;34.50;52.50;;;;;;1799342;78;21162;-83
2023/03/25 03:39:15;;;;;;;33.85;25.23;;;34.60;52.90;;;;;;1841854;77;21624;-81
2023/03/25 03:41:49;;;;;;;29.65;24.67;;;34.70;53.00;;;;;;1805706;78;21719;-81
2023/03/25 03:44:24;;;;;;;37.55;26.00;;;34.80;52.90;;;;;;1776821;80;21198;-82
2023/03/25 03:47:02;;;;;;;30.77;25.97;;;34.90;52.40;;;;;;1846058;77;21785;-81
2023/03/25 03:49:37;;;;;;;35.92;26.80;;;35.00;51.60;;;;;;1816282;76;21204;-82
2023/03/25 03:52:10;;;;;;;31.42;24.82;;;35.10;51.70;;;;;;1812656;78;21187;-82
2023/03/25 03:54:43;;;;;;;30.90;25.37;;;35.20;51.60;;;;;;1814229;78;21103;-82
2023/03/25 03:57:17;;;;;;;32.53;25.82;;;35.30;51.00;;;;;;1801724;78;21144;-81
2023/03/25 03:59:51;;;;;;;26.70;23.90;;;35.30;50.50;;;;;;1812760;78;21132;-82
2023/03/25 04:02:31;;;;;;;30.45;25.05;;;35.40;50.10;;;;;;1824965;78;21214;-84
2023/03/25 04:05:02;;;;;;;28.20;24.37;;;35.40;50.30;;;;;;1820369;78;21260;-84
2023/03/25 04:08:01;;;;;;;27.75;24.75;;;35.40;50.80;;;;;;1811112;79;21164;-82
2023/03/25 04:10:38;;;;;;;27.40;23.00;;;35.50;50.50;;;;;;1835459;77;21433;-83
2023/03/25 04:13:15;;;;;;;27.90;22.60;;;35.60;49.60;;;;;;1748345;81;21500;-82
2023/03/25 04:15:46;;;;;;;26.90;21.77;;;35.60;49.40;;;;;;1843811;77;21145;-84
2023/03/25 04:18:22;;;;;;;25.82;21.97;;;35.80;48.30;;;;;;1833167;77;21253;-82
2023/03/25 04:20:52;;;;;;;23.47;20.97;;;35.80;48.00;;;;;;1783805;78;21626;-83
2023/03/25 04:23:23;;;;;;;27.30;22.07;;;35.90;47.80;;;;;;1821048;78;21077;-83
2023/03/25 04:25:54;;;;;;;24.37;19.35;;;36.00;48.40;;;;;;1819202;78;21879;-83
2023/03/25 04:28:25;;;;;;;24.50;21.42;;;36.00;47.20;;;;;;1807572;78;21217;-83
2023/03/25 04:30:59;;;;;;;27.75;21.20;;;36.10;46.60;;;;;;1840273;77;21686;-83
2023/03/25 04:33:30;;;;;;;23.62;21.12;;;36.20;46.70;;;;;;1815241;78;21131;-83
2023/03/25 04:36:02;;;;;;;27.17;22.87;;;36.20;47.00;;;;;;1819326;77;21158;-83
2023/03/25 04:38:33;;;;;;;34.85;24.20;;;36.30;47.70;;;;;;1814114;78;21489;-83
2023/03/25 04:41:05;;;;;;;28.00;22.67;;;36.50;47.30;;;;;;1806560;78;21624;-83
2023/03/25 04:43:38;;;;;;;31.65;23.83;;;36.50;47.20;;;;;;1829505;77;21158;-83
2023/03/25 04:46:11;;;;;;;25.08;22.48;;;36.60;46.90;;;;;;1833771;77;21120;-83
2023/03/25 04:48:44;;;;;;;28.05;24.10;;;36.60;46.20;;;;;;1784253;80;21584;-83
2023/03/25 04:51:15;;;;;;;28.32;24.32;;;36.60;47.50;;;;;;1779434;80;21461;-83
2023/03/25 04:53:46;;;;;;;25.40;22.67;;;36.50;47.10;;;;;;1778753;79;21727;-84
2023/03/25 04:56:18;;;;;;;26.52;23.57;;;36.60;47.00;;;;;;1791797;79;21669;-83
2023/03/25 04:58:49;;;;;;;26.27;23.25;;;36.70;46.60;;;;;;1764838;81;21228;-83
2023/03/25 05:01:31;;;;;;;28.70;24.12;;;36.60;46.70;;;;;;1764904;81;21140;-82
2023/03/25 05:04:05;;;;;;;25.08;22.37;;;36.50;47.20;;;;;;1826883;78;21152;-83
2023/03/25 05:06:38;;;;;;;34.45;24.98;;;36.50;47.00;;;;;;1822706;78;21510;-83
2023/03/25 05:09:12;;;;;;;30.50;23.92;;;36.60;47.60;;;;;;1831481;77;21245;-83
2023/03/25 05:11:43;;;;;;;26.05;22.70;;;36.70;47.00;;;;;;1754752;81;21163;-83
2023/03/25 05:14:17;;;;;;;27.80;21.87;;;36.80;46.50;;;;;;1831695;78;21108;-84
2023/03/25 05:16:48;;;;;;;24.57;22.02;;;36.80;46.40;;;;;;1831708;77;21710;-82
2023/03/25 05:19:19;;;;;;;24.15;21.62;;;36.90;46.60;;;;;;1765471;81;21154;-83
2023/03/25 05:21:55;;;;;;;33.00;22.20;;;36.80;46.60;;;;;;1833164;77;21252;-83
2023/03/25 05:24:25;;;;;;;25.72;20.50;;;36.60;46.20;;;;;;1761908;81;21139;-85
2023/03/25 05:26:56;;;;;;;23.12;19.77;;;36.50;46.30;;;;;;1833946;77;21596;-84
2023/03/25 05:29:27;;;;;;;25.57;19.57;;;36.60;46.00;;;;;;1764801;81;21150;-82
2023/03/25 05:31:58;;;;;;;23.57;20.88;;;36.60;45.90;;;;;;1832797;77;21654;-84
2023/03/25 05:34:29;;;;;;;28.30;22.65;;;36.70;46.10;;;;;;1824984;77;21127;-83
2023/03/25 05:37:04;;;;;;;26.70;20.52;;;36.80;46.00;;;;;;1803964;79;21165;-83
2023/03/25 05:39:36;;;;;;;22.73;19.37;;;36.90;45.90;;;;;;1776411;80;21186;-83
2023/03/25 05:42:09;;;;;;;21.40;19.20;;;36.90;45.50;;;;;;1805766;78;21287;-83
2023/03/25 05:44:49;;;;;;;26.95;19.50;;;36.80;46.30;;;;;;1809522;79;21097;-83
2023/03/25 05:47:20;;;;;;;21.75;18.50;;;36.80;46.40;;;;;;1820151;79;21211;-83
2023/03/25 05:49:53;;;;;;;28.60;19.55;;;36.80;46.50;;;;;;1819538;79;21216;-83
2023/03/25 05:52:24;;;;;;;23.65;18.57;;;36.90;46.30;;;;;;1820481;79;21208;-84
2023/03/25 05:54:57;;;;;;;25.82;18.42;;;36.80;46.40;;;;;;1818084;79;21235;-84
2023/03/25 05:57:29;;;;;;;18.82;15.60;;;36.90;46.60;;;;;;1826366;78;21898;-84
2023/03/25 06:00:00;;;;;;;26.05;17.30;;;36.90;46.30;;;;;;1787655;80;21154;-84
2023/03/25 06:02:31;;;;;;;18.70;16.70;;;37.00;46.60;;;;;;1770982;81;21109;-85
2023/03/25 06:05:08;;;;;;;24.85;18.12;;;37.10;48.00;;;;;;1795439;80;21228;-85
2023/03/25 06:07:38;;;;;;;21.10;16.50;;;37.20;47.20;;;;;;1798983;80;21229;-84
2023/03/25 06:10:10;;;;;;;19.05;15.18;;;37.20;46.50;;;;;;1802242;79;21634;-84
2023/03/25 06:12:41;;;;;;;24.55;16.07;;;37.30;46.00;;;;;;1776271;80;21183;-83
2023/03/25 06:15:13;;;;;;;17.70;15.30;;;37.30;54.50;;;;;;1780752;79;21166;-84
2023/03/25 06:17:49;;;;;;;16.60;14.87;;;37.40;45.70;;;;;;1785702;80;21236;-86
2023/03/25 06:20:18;;;;;;;22.85;15.48;;;37.40;45.50;;;;;;1775324;79;21273;-85
2023/03/25 06:22:49;;;;;;;18.02;15.13;;;37.50;45.20;;;;;;1796136;80;21150;-84
2023/03/25 06:25:21;;;;;;;18.85;16.07;;;37.50;44.70;;;;;;1810161;79;21260;-84
2023/03/25 06:27:52;;;;;;;18.65;14.95;;;37.50;49.20;;;;;;1819691;79;21203;-85
2023/03/25 06:30:24;;;;;;;18.60;15.45;;;37.60;57.50;;;;;;1821055;77;21156;-84
2023/03/25 06:33:10;;;;;;;29.10;15.90;;;37.60;57.30;;;;;;1821035;78;21235;-85
2023/03/25 06:35:42;;;;;;;17.55;14.83;;;37.70;57.00;;;;;;1821254;79;21242;-83
2023/03/25 06:38:14;;;;;;;19.15;14.85;;;37.70;55.40;;;;;;1789816;79;21221;-84
2023/03/25 06:40:46;;;;;;;17.05;14.70;;;37.80;54.10;;;;;;1803626;78;21606;-83
2023/03/25 06:43:18;;;;;;;17.35;15.60;;;37.80;53.80;;;;;;1803320;79;21189;-84
2023/03/25 06:45:53;;;;;;;16.27;14.55;;;37.80;54.60;;;;;;1807366;78;21167;-84
2023/03/25 06:48:25;;;;;;;21.50;15.28;;;37.80;54.40;;;;;;1810955;78;21158;-85
2023/03/25 06:50:58;;;;;;;19.30;15.48;;;37.70;55.20;;;;;;1806216;78;21124;-84
2023/03/25 06:53:29;;;;;;;16.67;15.08;;;37.80;55.20;;;;;;1837986;77;21132;-84
2023/03/25 06:56:00;;;;;;;16.57;14.20;;;37.80;54.90;;;;;;1804954;78;21156;-83
2023/03/25 06:58:33;;;;;;;18.82;14.87;;;37.90;55.80;;;;;;1836506;77;21140;-84
2023/03/25 07:01:05;;;;;;;17.42;15.58;;;37.90;57.20;;;;;;1845973;77;21144;-84
2023/03/25 07:03:37;;;;;;;17.25;14.43;;;38.00;64.90;;;;;;1802462;78;21128;-84
2023/03/25 07:06:10;;;;;;;16.20;13.70;;;38.00;64.80;;;;;;1839250;77;21175;-84
2023/03/25 07:08:41;;;;;;;17.60;14.75;;;38.10;64.80;;;;;;1842227;76;21163;-84
2023/03/25 07:11:14;;;;;;;19.82;14.05;;;38.00;65.00;;;;;;1798253;78;21098;-84
2023/03/25 07:13:45;;;;;;;16.23;13.98;;;38.10;64.80;;;;;;1835029;77;21564;-83
2023/03/25 07:16:16;;;;;;;17.07;13.98;;;37.80;43.80;;;;;;1816606;79;21199;-84
2023/03/25 07:18:49;;;;;;;19.67;14.23;;;37.80;44.00;;;;;;1795058;79;21590;-85
2023/03/25 07:21:20;;;;;;;19.62;15.48;;;37.80;44.30;;;;;;1804657;78;21166;-84
2023/03/25 07:23:51;;;;;;;16.32;13.58;;;37.70;42.80;;;;;;1841143;77;21129;-83
2023/03/25 07:26:22;;;;;;;14.78;13.32;;;37.70;43.60;;;;;;1805447;78;21388;-84
2023/03/25 07:28:53;;;;;;;15.05;13.30;;;37.70;43.00;;;;;;1813284;78;21158;-84
2023/03/25 07:31:24;;;;;;;16.40;13.80;;;37.70;43.90;;;;;;1843163;77;21549;-84
2023/03/25 07:33:55;;;;;;;16.82;14.18;;;37.70;42.60;;;;;;1805445;78;21158;-84
2023/03/25 07:36:26;;;;;;;16.37;14.05;;;37.60;43.80;;;;;;1840167;77;21159;-85
2023/03/25 07:38:57;;;;;;;15.30;12.75;;;37.60;42.60;;;;;;1807686;78;21181;-84
2023/03/25 07:41:29;;;;;;;18.40;13.43;;;37.60;41.80;;;;;;1802937;78;21224;-82
2023/03/25 07:44:00;;;;;;;19.17;14.05;;;37.50;41.90;;;;;;1801927;79;21149;-83
2023/03/25 07:46:31;;;;;;;20.50;13.83;;;37.50;42.10;;;;;;1803132;79;21200;-83
2023/03/25 07:49:02;;;;;;;14.45;13.03;;;37.50;41.40;;;;;;1789173;79;21235;-83
2023/03/25 07:51:33;;;;;;;19.12;12.85;;;37.50;41.40;;;;;;1802690;79;21442;-83
2023/03/25 07:54:04;;;;;;;15.23;12.98;;;37.50;42.70;;;;;;1803118;78;21157;-83
2023/03/25 07:56:35;;;;;;;18.65;13.50;;;37.50;40.50;;;;;;1802873;79;21146;-83
2023/03/25 07:59:08;;;;;;;15.93;13.80;;;37.50;40.00;;;;;;1801764;79;21146;-84
2023/03/25 08:01:39;;;;;;;15.35;12.90;;;37.60;41.60;;;;;;1801878;78;21153;-83
2023/03/25 08:04:12;;;;;;;14.87;13.48;;;37.60;41.20;;;;;;1804733;78;21117;-83
2023/03/25 08:06:42;;;;;;;13.55;11.83;;;37.70;41.60;;;;;;1838542;77;21147;-84
2023/03/25 08:09:19;;;;;;;15.20;13.28;;;37.70;40.80;;;;;;1776616;81;21119;-82
2023/03/25 08:11:50;;;;;;;14.00;11.75;;;37.70;40.00;;;;;;1757762;81;21164;-81
2023/03/25 08:14:22;;;;;;;15.50;11.90;;;37.70;40.20;;;;;;1757398;81;21265;-84
2023/03/25 08:16:53;;;;;;;18.20;12.07;;;37.70;40.30;;;;;;1752937;81;21227;-82
2023/03/25 08:19:24;;;;;;;16.02;12.25;;;37.70;40.40;;;;;;1833176;77;21202;-85
2023/03/25 08:21:55;;;;;;;14.07;12.58;;;37.70;40.80;;;;;;1825527;77;21961;-83
2023/03/25 08:24:28;;;;;;;13.68;12.10;;;37.70;40.70;;;;;;1836067;77;21163;-81
2023/03/25 08:27:02;;;;;;;13.22;11.93;;;37.70;40.90;;;;;;1835728;77;21164;-84
2023/03/25 08:29:34;;;;;;;12.33;11.23;;;37.70;41.00;;;;;;1795354;78;21176;-83
2023/03/25 08:32:05;;;;;;;17.10;12.07;;;37.70;40.90;;;;;;1806167;78;21216;-82
2023/03/25 08:34:38;;;;;;;12.45;11.18;;;37.70;40.50;;;;;;1777267;80;21140;-82
2023/03/25 08:37:10;;;;;;;14.75;11.45;;;37.70;40.00;;;;;;1846653;77;21182;-81
2023/03/25 08:39:41;;;;;;;13.93;11.75;;;37.60;40.50;;;;;;1802122;78;21240;-80
2023/03/25 08:42:13;;;;;;;22.17;11.93;;;37.60;40.00;;;;;;1811160;78;21599;-83
2023/03/25 08:44:44;;;;;;;12.43;10.60;;;37.60;40.80;;;;;;1806849;78;21183;-82
2023/03/25 08:47:15;;;;;;;14.78;11.97;;;37.60;41.80;;;;;;1804673;78;21172;-83
2023/03/25 08:49:46;;;;;;;16.17;12.43;;;37.60;41.20;;;;;;1805396;78;21405;-83
2023/03/25 08:52:17;;;;;;;19.05;12.75;;;37.60;41.20;;;;;;1790732;79;21635;-83
2023/03/25 08:54:49;;;;;;;13.83;11.20;;;37.60;41.40;;;;;;1803351;78;21136;-84
2023/03/25 08:57:20;;;;;;;12.82;11.53;;;37.60;40.30;;;;;;1837966;77;21187;-83
2023/03/25 08:59:51;;;;;;;13.43;10.78;;;37.60;41.10;;;;;;1840493;77;21176;-82
2023/03/25 09:02:22;;;;;;;14.65;11.28;;;37.60;40.90;;;;;;1805013;78;21289;-83
2023/03/25 09:04:56;;;;;;;13.00;10.78;;;37.50;40.80;;;;;;1800343;78;21162;-82
2023/03/25 09:07:32;;;;;;;13.00;11.60;;;37.50;40.70;;;;;;1804841;79;21233;-84
2023/03/25 09:10:05;;;;;;;15.93;11.80;;;37.50;40.60;;;;;;1798571;78;21212;-83
2023/03/25 09:12:36;;;;;;;16.27;10.72;;;37.50;40.60;;;;;;1801168;78;21822;-82
2023/03/25 09:15:08;;;;;;;14.78;12.53;;;37.50;41.50;;;;;;1812544;78;21138;-82
2023/03/25 09:17:39;;;;;;;15.45;11.55;;;37.40;41.30;;;;;;1817994;78;21679;-82
2023/03/25 09:20:11;;;;;;;14.00;11.80;;;37.40;41.60;;;;;;1843739;77;21279;-82
2023/03/25 09:22:42;;;;;;;16.97;12.70;;;37.40;42.10;;;;;;1813615;78;21166;-82
2023/03/25 09:25:13;;;;;;;19.95;13.05;;;37.40;42.50;;;;;;1846951;77;21243;-83
2023/03/25 09:27:45;;;;;;;13.68;11.55;;;37.30;42.10;;;;;;1834378;77;21597;-82
2023/03/25 09:30:16;;;;;;;16.27;12.47;;;37.30;41.70;;;;;;1841243;77;21135;-82
2023/03/25 09:32:47;;;;;;;14.28;11.33;;;37.30;42.40;;;;;;1821257;78;21150;-82
2023/03/25 09:35:18;;;;;;;17.62;11.83;;;37.20;42.20;;;;;;1803169;78;21590;-83
2023/03/25 09:37:49;;;;;;;13.83;11.75;;;37.20;42.50;;;;;;1803579;78;21142;-82
2023/03/25 09:40:22;;;;;;;13.70;11.88;;;37.20;42.30;;;;;;1734921;81;21222;-83
2023/03/25 09:43:13;;;;;;;22.67;12.43;;;37.20;42.10;;;;;;1815998;79;22057;-82
2023/03/25 09:45:46;;;;;;;19.27;11.48;;;37.10;41.80;;;;;;1728913;82;21493;-82
2023/03/25 09:48:39;;;;;;;16.25;11.80;;;37.10;41.70;;;;;;1762162;81;21405;-82
2023/03/25 09:51:24;;;;;;;16.45;12.20;;;37.10;41.90;;;;;;1733998;81;21225;-83
2023/03/25 09:54:24;;;;;;;12.95;11.53;;;37.00;42.40;;;;;;1804313;78;21137;-83
2023/03/25 09:56:58;;;;;;;15.50;11.40;;;37.00;42.40;;;;;;1740467;81;21306;-83
2023/03/25 09:59:34;;;;;;;16.70;11.43;;;37.00;42.70;;;;;;1802292;78;21844;-83
2023/03/25 10:02:10;;;;;;;17.02;13.13;;;37.00;43.10;;;;;;1811546;79;21145;-83
2023/03/25 10:05:10;;;;;;;13.13;11.70;;;36.90;43.00;;;;;;1804948;77;21189;-81
2023/03/25 10:07:58;;;;;;;15.03;12.90;;;36.90;43.10;;;;;;1824160;77;21172;-83
2023/03/25 10:10:34;;;;;;;19.42;11.78;;;36.90;43.00;;;;;;1818025;77;21137;-82
2023/03/25 10:13:14;;;;;;;15.10;12.05;;;36.80;43.00;;;;;;1816440;77;21160;-83
2023/03/25 10:15:51;;;;;;;14.28;12.00;;;36.80;43.30;;;;;;1802176;77;21117;-83
2023/03/25 10:18:44;;;;;;;13.70;12.03;;;36.80;43.30;;;;;;1776788;77;21216;-82
2023/03/25 10:21:39;;;;;;;13.95;10.65;;;36.80;43.10;;;;;;1815144;79;21616;-83
2023/03/25 10:24:21;;;;;;;15.20;10.93;;;36.80;43.20;;;;;;1819033;77;21121;-82
2023/03/25 10:27:01;;;;;;;17.30;12.68;;;36.70;43.00;;;;;;1816854;77;21163;-82
2023/03/25 10:29:49;;;;;;;17.92;13.95;;;36.70;43.30;;;;;;1803269;79;21256;-81
2023/03/25 10:32:43;;;;;;;13.55;12.15;;;36.70;43.30;;;;;;1817158;77;21176;-82
2023/03/25 10:35:25;;;;;;;15.60;12.47;;;36.60;43.30;;;;;;1808856;79;21223;-81
2023/03/25 10:38:06;;;;;;;14.30;12.60;;;36.60;43.40;;;;;;1820194;77;21150;-82
2023/03/25 10:40:43;;;;;;;16.12;13.90;;;36.60;43.70;;;;;;1821083;77;21145;-81
2023/03/25 10:43:30;;;;;;;16.23;12.82;;;36.60;43.80;;;;;;1822436;79;21838;-82
2023/03/25 10:46:21;;;;;;;23.02;12.70;;;36.60;43.80;;;;;;1822150;79;21594;-81
2023/03/25 10:48:52;;;;;;;15.78;13.72;;;36.50;44.00;;;;;;1824588;77;21172;-81
2023/03/25 10:51:29;;;;;;;16.62;14.83;;;36.50;44.10;;;;;;1822848;79;21133;-82
2023/03/25 10:54:00;;;;;;;15.72;13.50;;;36.50;44.30;;;;;;1814807;77;21192;-82
2023/03/25 10:56:52;;;;;;;18.15;14.45;;;36.50;44.40;;;;;;1814927;78;21437;-83
2023/03/25 10:59:45;;;;;;;20.10;13.10;;;36.40;44.20;;;;;;1822996;77;21129;-82
2023/03/25 11:02:22;;;;;;;17.20;13.40;;;36.40;44.50;;;;;;1821510;79;21320;-82
2023/03/25 11:04:55;;;;;;;18.65;14.18;;;36.30;44.30;;;;;;1820079;77;21239;-81
2023/03/25 11:07:37;;;;;;;17.20;12.75;;;36.30;44.70;;;;;;1822099;77;21165;-81
2023/03/25 11:10:26;;;;;;;16.40;13.20;;;36.30;44.70;;;;;;1823492;77;21186;-82
2023/03/25 11:13:02;;;;;;;18.57;13.65;;;36.20;44.70;;;;;;1817392;79;22001;-82
2023/03/25 11:15:37;;;;;;;18.45;15.13;;;36.20;45.00;;;;;;1824522;77;21124;-81
2023/03/25 11:18:26;;;;;;;23.57;15.03;;;36.10;44.30;;;;;;1818948;77;22074;-81
2023/03/25 11:21:02;;;;;;;20.25;14.95;;;36.10;45.10;;;;;;1818399;78;21878;-82
2023/03/25 11:23:38;;;;;;;20.72;13.32;;;36.00;45.10;;;;;;1824561;77;21448;-80
2023/03/25 11:26:32;;;;;;;23.80;14.55;;;36.10;45.30;;;;;;1834016;77;21237;-80
2023/03/25 11:29:15;;;;;;;15.83;14.03;;;36.00;45.30;;;;;;1807497;78;21171;-81
2023/03/25 11:31:48;;;;;;;19.02;14.43;;;36.00;45.40;;;;;;1818604;79;21189;-80
2023/03/25 11:34:25;;;;;;;22.90;13.60;;;36.00;45.60;;;;;;1775467;79;21120;-80
2023/03/25 11:37:03;;;;;;;21.68;14.30;;;35.90;45.60;;;;;;1825561;77;21149;-80
2023/03/25 11:39:38;;;;;;;17.90;13.05;;;35.90;45.70;;;;;;1830405;77;21124;-81
2023/03/25 11:42:11;;;;;;;20.45;14.90;;;35.80;45.60;;;;;;1803841;78;21195;-80
2023/03/25 11:44:43;;;;;;;22.45;14.68;;;35.80;45.60;;;;;;1802626;79;21663;-79
2023/03/25 11:47:16;;;;;;;20.12;13.80;;;35.80;45.60;;;;;;1820651;78;21210;-80
2023/03/25 11:49:52;;;;;;;19.87;13.72;;;35.80;45.80;;;;;;1808394;78;21141;-80
2023/03/25 11:52:28;;;;;;;19.05;13.35;;;35.70;45.90;;;;;;1805877;78;21263;-80
2023/03/25 11:55:00;;;;;;;21.23;14.65;;;35.70;45.90;;;;;;1801592;79;21138;-80
2023/03/25 11:57:34;;;;;;;19.25;15.03;;;35.70;46.00;;;;;;1785594;79;21110;-81
2023/03/25 12:00:27;;;;;;;19.00;15.55;;;35.60;46.00;;;;;;1801870;78;21149;-81
2023/03/25 12:03:03;;;;;;;22.85;18.25;;;35.60;46.20;;;;;;1836791;77;21677;-81
2023/03/25 12:05:33;;;;;;;;;;;35.60;46.40;;;;;;1788257;80;21156;-82
2023/03/25 12:08:18;;;;;;;22.02;15.80;;;35.60;46.60;;;;;;1755231;80;20214;-82
2023/03/25 12:10:57;;;;;;;25.43;17.40;;;35.60;46.40;;;;;;1757899;80;21162;-80
2023/03/25 12:13:52;;;;;;;19.70;17.00;;;35.60;46.40;;;;;;1806239;78;21210;-80
2023/03/25 12:16:31;;;;;;;20.70;16.62;;;35.60;46.60;;;;;;1802114;78;21245;-81
2023/03/25 12:19:28;;;;;;;20.48;16.12;;;35.50;46.50;;;;;;1798985;78;21712;-82
2023/03/25 12:21:58;;;;;;;22.60;17.05;;;35.50;46.70;;;;;;1783661;79;21193;-82
2023/03/25 12:24:55;;;;;;;28.85;16.40;;;35.50;46.80;;;;;;1795790;78;21229;-82
2023/03/25 12:27:37;;;;;;;21.57;16.05;;;35.40;46.90;;;;;;1801648;78;21181;-82
2023/03/25 12:30:26;;;;;;;19.12;16.00;;;35.40;47.00;;;;;;1802546;79;21593;-81
2023/03/25 12:33:21;;;;;;;23.25;15.60;;;35.40;47.10;;;;;;1804107;78;21991;-82
2023/03/25 12:36:11;;;;;;;23.05;15.80;;;35.30;47.10;;;;;;1789881;78;21211;-79
2023/03/25 12:38:47;;;;;;;23.77;16.12;;;35.30;47.10;;;;;;1797941;79;21231;-81
2023/03/25 12:41:22;;;;;;;24.25;16.62;;;35.20;47.30;;;;;;1802644;79;21216;-82
2023/03/25 12:44:04;;;;;;;25.10;17.05;;;35.20;47.00;;;;;;1794703;78;21189;-79
2023/03/25 12:46:43;;;;;;;21.23;16.20;;;35.20;47.20;;;;;;1788428;79;21232;-81
2023/03/25 12:49:36;;;;;;;21.95;16.23;;;35.20;47.20;;;;;;1802538;79;21610;-82
2023/03/25 12:52:09;;;;;;;22.93;16.65;;;35.20;47.40;;;;;;1792986;78;21149;-81
2023/03/25 12:54:43;;;;;;;25.00;16.40;;;35.10;47.50;;;;;;1784436;80;21156;-81
2023/03/25 12:57:40;;;;;;;22.25;17.20;;;35.10;47.40;;;;;;1798095;78;21708;-81
2023/03/25 13:00:20;;;;;;;31.60;17.45;;;35.10;47.50;;;;;;1801620;79;21248;-80
2023/03/25 13:03:11;;;;;;;28.67;17.10;;;35.10;47.70;;;;;;1802739;78;21213;-81
2023/03/25 13:06:00;;;;;;;23.45;17.32;;;35.10;47.90;;;;;;1800904;79;21251;-80
2023/03/25 13:08:50;;;;;;;22.07;17.00;;;35.00;47.90;;;;;;1802833;78;21538;-81
2023/03/25 13:11:55;;;;;;;28.85;17.73;;;35.00;47.60;;;;;;1803006;78;21987;-81
2023/03/25 13:14:31;;;;;;;24.60;16.95;;;34.90;47.60;;;;;;1799175;78;21617;-81